Startpagina
METAR-TAF:

METAR-TAF

Vliegvelden :

Productieplatform

P11-b, Nederland

breedte: 52-21-36N, lengte: 3-20-30E, hoogte: 24 m

Actueel weer

Dit bericht is 12 minuten geleden gemaakt, om 12:25 UTC
Wind 32 kt uit het westzuidwesten
Temperatuur 10°C
Vochtigheid 87%
Druk 1019 hPa
Zicht 10 km of meer

METAR: EHPG 291225Z AUTO 24032KT 9999 NSC 10/08 Q1019

Tijdstip: 13:37 (12:37 UTC)


TAF: ontbreekt

Waarnemingen en weersverwachtingen van meer dan 4000 vliegvelden (METAR en TAF).

De beschikbare stations zijn de gele en rode punten op de kaart.

Ga met uw muis naar het station om de naam te zien.

Klik dan om waarnemingen en weersverwachtingen te zien.

kaart wijzigen: klik op de groene knoppen met een zwart kruis om in te zoomen, op de groene knop met een streepje om uit te zoomen of op de groene pijlen voor aangrenzende kaarten.


METAR-TAF: